Time;durP1;ratioP1;P1;durP2;ratioP2;P2;SDS_P1;SDS_P2;PMS_P1;PMS_P2;Temp;Humidity;BMP_temperature;BMP_pressure;BME280_temperature;BME280_humidity;BME280_pressure;Samples;Min_cycle;Max_cycle;Signal;HPM_P1;HPM_P2
2022/09/26 00:02:22;;;;;;;5.45;2.38;;;;;;;7.56;100.00;91995.84;5026455;28;20037;-74
2022/09/26 00:04:49;;;;;;;4.50;2.40;;;;;;;7.54;100.00;91992.72;5010132;28;20040;-75
2022/09/26 00:07:14;;;;;;;5.85;2.75;;;;;;;7.53;100.00;91993.78;5011331;28;20038;-74
2022/09/26 00:09:40;;;;;;;9.85;3.70;;;;;;;7.52;100.00;91984.44;5011306;28;20034;-75
2022/09/26 00:12:06;;;;;;;9.23;2.60;;;;;;;7.51;100.00;91980.28;5010114;28;20021;-75
2022/09/26 00:14:32;;;;;;;3.67;2.13;;;;;;;7.53;100.00;91980.78;5010077;28;20510;-75
2022/09/26 00:16:58;;;;;;;4.28;1.92;;;;;;;7.53;100.00;91980.00;5011227;28;20502;-75
2022/09/26 00:19:24;;;;;;;9.48;2.72;;;;;;;7.51;100.00;91973.22;5011341;28;20025;-75
2022/09/26 00:21:49;;;;;;;5.78;2.80;;;;;;;7.49;100.00;91977.94;5037375;28;20045;-75
2022/09/26 00:24:16;;;;;;;5.88;2.53;;;;;;;7.49;100.00;91974.56;5009845;28;20361;-74
2022/09/26 00:26:42;;;;;;;5.35;2.50;;;;;;;7.48;100.00;91973.03;5009972;28;20496;-74
2022/09/26 00:29:11;;;;;;;6.15;2.78;;;;;;;7.46;100.00;91975.13;5011043;28;20431;-74
2022/09/26 00:31:44;;;;;;;6.93;2.60;;;;;;;7.45;100.00;91969.16;5010144;28;20034;-75
2022/09/26 00:34:16;;;;;;;4.25;2.13;;;;;;;7.42;100.00;91963.72;5012618;28;20057;-75
2022/09/26 00:36:42;;;;;;;7.57;2.97;;;;;;;7.40;100.00;91965.81;5013337;28;20443;-75
2022/09/26 00:39:09;;;;;;;9.23;2.47;;;;;;;7.38;100.00;91955.69;5030262;28;20025;-75
2022/09/26 00:41:36;;;;;;;5.63;2.17;;;;;;;7.36;100.00;91954.41;5014982;28;20042;-74
2022/09/26 00:44:22;;;;;;;6.22;2.95;;;;;;;7.35;100.00;91952.88;5014914;28;20515;-75
2022/09/26 00:46:49;;;;;;;4.07;2.17;;;;;;;7.33;100.00;91940.13;5013510;28;20495;-74
2022/09/26 00:49:45;;;;;;;5.72;2.50;;;;;;;7.34;100.00;91941.69;5013556;28;20133;-75
2022/09/26 00:52:18;;;;;;;3.28;1.95;;;;;;;7.32;100.00;91946.41;5010013;28;20049;-75
2022/09/26 00:54:49;;;;;;;3.83;1.95;;;;;;;7.29;100.00;91939.94;5013373;28;20054;-75
2022/09/26 00:57:20;;;;;;;4.43;1.88;;;;;;;7.27;100.00;91942.03;5031825;28;20111;-74
2022/09/26 00:59:53;;;;;;;6.43;1.98;;;;;;;7.25;100.00;91927.72;5036795;28;20045;-75
2022/09/26 01:02:20;;;;;;;4.00;1.98;;;;;;;7.24;100.00;91921.75;5052890;28;20045;-75
2022/09/26 01:04:47;;;;;;;3.75;1.70;;;;;;;7.23;100.00;91914.22;5053024;28;20025;-75
2022/09/26 01:07:18;;;;;;;2.00;1.40;;;;;;;7.25;100.00;91906.88;5053219;28;20065;-74
2022/09/26 01:09:46;;;;;;;2.85;1.70;;;;;;;7.27;100.00;91910.78;5053258;28;20040;-75
2022/09/26 01:12:15;;;;;;;2.42;1.50;;;;;;;7.27;100.00;91902.97;5052914;28;20032;-74
2022/09/26 01:14:41;;;;;;;3.25;1.58;;;;;;;7.26;100.00;91904.00;5052996;28;20025;-74
2022/09/26 01:17:08;;;;;;;4.63;1.60;;;;;;;7.24;100.00;91894.94;5053988;28;20040;-74
2022/09/26 01:20:01;;;;;;;2.35;1.35;;;;;;;7.20;100.00;91891.34;5054040;28;20601;-74
2022/09/26 01:22:45;;;;;;;6.45;1.63;;;;;;;7.13;100.00;91883.88;5048937;28;20049;-75
2022/09/26 01:25:11;;;;;;;2.00;1.30;;;;;;;7.11;100.00;91880.78;5052675;28;20033;-74
2022/09/26 01:27:43;;;;;;;2.72;1.40;;;;;;;7.10;100.00;91887.03;5036029;28;20033;-74
2022/09/26 01:30:13;;;;;;;2.20;1.40;;;;;;;7.07;100.00;91885.00;5052708;28;20064;-74
2022/09/26 01:33:06;;;;;;;4.20;1.30;;;;;;;7.08;100.00;91881.34;5052530;28;20033;-74
2022/09/26 01:36:14;;;;;;;6.68;1.50;;;;;;;7.07;100.00;91882.41;5052403;28;20047;-75
2022/09/26 01:39:02;;;;;;;2.78;1.40;;;;;;;7.07;100.00;91874.59;5015169;28;20142;-74
2022/09/26 01:41:43;;;;;;;2.38;1.20;;;;;;;7.06;100.00;91880.84;5053671;28;20442;-74
2022/09/26 01:44:17;;;;;;;1.98;1.20;;;;;;;7.05;100.00;91872.25;5050987;28;20037;-74
2022/09/26 01:46:53;;;;;;;3.28;1.27;;;;;;;7.03;100.00;91869.16;5053523;28;20418;-74
2022/09/26 01:49:57;;;;;;;1.65;1.10;;;;;;;7.04;100.00;91869.94;5035665;28;20116;-74
2022/09/26 01:52:44;;;;;;;1.60;1.10;;;;;;;7.03;100.00;91878.81;5052134;28;20502;-74
2022/09/26 01:55:39;;;;;;;1.92;1.00;;;;;;;7.00;100.00;91880.13;5051960;28;20086;-75
2022/09/26 01:58:17;;;;;;;3.55;1.40;;;;;;;7.00;100.00;91879.34;5051279;28;20045;-74
2022/09/26 02:00:45;;;;;;;2.83;1.10;;;;;;;6.99;100.00;91870.00;5012293;28;20029;-75
2022/09/26 02:03:16;;;;;;;3.10;1.27;;;;;;;6.96;100.00;91867.94;5013374;28;20504;-75
2022/09/26 02:05:53;;;;;;;2.60;1.27;;;;;;;6.94;100.00;91862.25;4995907;28;20041;-75
2022/09/26 02:08:29;;;;;;;2.05;1.20;;;;;;;6.91;100.00;91855.00;5013364;28;20117;-75
2022/09/26 02:11:09;;;;;;;2.03;1.27;;;;;;;6.87;100.00;91858.16;5012427;28;20037;-74
2022/09/26 02:13:59;;;;;;;3.00;1.30;;;;;;;6.86;100.00;91848.78;5012392;28;20045;-75
2022/09/26 02:16:30;;;;;;;3.17;1.30;;;;;;;6.88;100.00;91851.88;5009125;28;20474;-74
2022/09/26 02:19:05;;;;;;;1.75;1.17;;;;;;;6.84;100.00;91845.69;5013214;28;20445;-74
2022/09/26 02:21:30;;;;;;;1.83;1.20;;;;;;;6.87;100.00;91854.78;5011929;28;20034;-74
2022/09/26 02:23:56;;;;;;;5.00;1.40;;;;;;;6.85;100.00;91847.25;5013088;28;20060;-74
2022/09/26 02:26:22;;;;;;;2.08;1.30;;;;;;;6.83;100.00;91838.19;4995547;28;20038;-75
2022/09/26 02:28:50;;;;;;;2.30;1.30;;;;;;;6.82;100.00;91842.63;5011655;28;20072;-75
2022/09/26 02:31:21;;;;;;;1.40;1.05;;;;;;;6.84;100.00;91832.69;5011881;28;20034;-74
2022/09/26 02:33:50;;;;;;;1.83;1.20;;;;;;;6.87;100.00;91836.56;5011251;28;20033;-75
2022/09/26 02:36:18;;;;;;;2.10;1.20;;;;;;;6.94;100.00;91833.63;5011599;28;20518;-75
2022/09/26 02:38:44;;;;;;;2.60;1.20;;;;;;;6.98;100.00;91835.41;4995212;28;20078;-74
2022/09/26 02:41:50;;;;;;;4.10;1.08;;;;;;;6.99;100.00;91825.75;4998842;28;20026;-75
2022/09/26 02:44:39;;;;;;;2.20;1.00;;;;;;;7.07;100.00;91825.16;5011389;28;20038;-75
2022/09/26 02:47:38;;;;;;;1.83;1.08;;;;;;;7.07;100.00;91825.16;5012572;28;20056;-74
2022/09/26 02:50:19;;;;;;;0.98;0.80;;;;;;;7.09;100.00;91821.22;4995093;28;20038;-74
2022/09/26 02:52:57;;;;;;;1.55;1.00;;;;;;;7.10;100.00;91816.78;5012606;28;20037;-74
2022/09/26 02:56:14;;;;;;;1.98;1.13;;;;;;;7.08;100.00;91818.88;5010656;28;20084;-74
2022/09/26 02:58:58;;;;;;;3.35;0.80;;;;;;;7.07;100.00;91807.69;4988953;28;20412;-75
2022/09/26 03:01:48;;;;;;;1.20;0.82;;;;;;;7.13;100.00;91815.44;5027614;28;20052;-75
2022/09/26 03:04:39;;;;;;;1.17;0.90;;;;;;;7.17;100.00;91808.63;5010931;28;20060;-74
2022/09/26 03:07:13;;;;;;;0.65;0.60;;;;;;;7.20;100.00;91815.84;4994724;28;20499;-74
2022/09/26 03:09:40;;;;;;;1.45;0.82;;;;;;;7.28;100.00;91813.38;5011114;28;20038;-74
2022/09/26 03:12:08;;;;;;;0.70;0.70;;;;;;;7.32;100.00;91813.63;5011013;28;20084;-74
2022/09/26 03:14:37;;;;;;;1.92;1.05;;;;;;;7.36;100.00;91816.41;5027332;28;20474;-75
2022/09/26 03:17:03;;;;;;;2.13;1.10;;;;;;;7.36;100.00;91819.00;5027300;28;20105;-74
2022/09/26 03:20:03;;;;;;;2.40;1.38;;;;;;;7.42;100.00;91815.28;5014227;28;20030;-75
2022/09/26 03:22:30;;;;;;;5.32;1.40;;;;;;;7.34;100.00;91821.91;5030398;28;20041;-75
2022/09/26 03:24:58;;;;;;;4.10;1.40;;;;;;;7.26;100.00;91810.28;5031815;28;20394;-74
2022/09/26 03:27:24;;;;;;;1.92;1.10;;;;;;;7.16;100.00;91807.84;5046950;28;20053;-74
2022/09/26 03:29:50;;;;;;;1.40;1.00;;;;;;;7.13;100.00;91812.81;5030237;28;20064;-75
2022/09/26 03:32:20;;;;;;;1.13;0.75;;;;;;;7.08;100.00;91808.47;5016637;28;20029;-74
2022/09/26 03:34:47;;;;;;;2.50;0.93;;;;;;;7.01;100.00;91808.81;5030575;28;20040;-74
2022/09/26 03:37:15;;;;;;;1.42;1.10;;;;;;;6.98;100.00;91808.59;5013173;28;21867;-73
2022/09/26 03:39:43;;;;;;;5.40;1.10;;;;;;;6.94;100.00;91810.22;5014015;28;20428;-74
2022/09/26 03:42:20;;;;;;;0.77;0.70;;;;;;;6.99;100.00;91810.16;5029989;28;20042;-74
2022/09/26 03:44:45;;;;;;;1.13;0.82;;;;;;;6.99;100.00;91794.53;5046641;28;20041;-74
2022/09/26 03:47:12;;;;;;;1.08;0.82;;;;;;;7.01;100.00;91797.63;5046511;28;20048;-77
2022/09/26 03:49:47;;;;;;;1.38;0.93;;;;;;;6.98;100.00;91793.75;5032092;28;20672;-74
2022/09/26 03:52:14;;;;;;;1.65;1.00;;;;;;;7.00;100.00;91794.25;5046216;28;20098;-74
2022/09/26 03:54:41;;;;;;;2.40;1.00;;;;;;;6.97;100.00;91783.63;5013429;28;20057;-74
2022/09/26 03:57:09;;;;;;;0.73;0.65;;;;;;;6.95;100.00;91783.13;5013077;28;20090;-74
2022/09/26 03:59:39;;;;;;;3.90;0.98;;;;;;;6.99;100.00;91774.47;5026418;28;20045;-74
2022/09/26 04:02:05;;;;;;;0.57;0.57;;;;;;;7.09;100.00;91773.56;5011362;28;20084;-74
2022/09/26 04:04:36;;;;;;;0.85;0.75;;;;;;;7.17;100.00;91770.34;5010837;28;20037;-74
2022/09/26 04:07:02;;;;;;;1.10;0.80;;;;;;;7.22;100.00;91769.50;5009420;28;20041;-75
2022/09/26 04:09:27;;;;;;;1.27;0.60;;;;;;;7.23;100.00;91769.22;5011465;28;20496;-74
2022/09/26 04:11:53;;;;;;;1.58;0.80;;;;;;;7.34;100.00;91766.44;5010148;28;20505;-75
2022/09/26 04:14:20;;;;;;;3.40;1.30;;;;;;;7.37;100.00;91771.88;5010003;28;20052;-75
2022/09/26 04:16:51;;;;;;;2.53;1.17;;;;;;;7.40;100.00;91780.94;5010205;28;20400;-74
2022/09/26 04:19:43;;;;;;;3.40;1.40;;;;;;;7.39;100.00;91766.41;5022426;28;20416;-74
2022/09/26 04:22:08;;;;;;;4.43;1.50;;;;;;;7.36;100.00;91767.72;5026288;28;20299;-75
2022/09/26 04:24:34;;;;;;;1.77;1.23;;;;;;;7.27;100.00;91775.41;5010040;28;20037;-74
2022/09/26 04:27:00;;;;;;;2.35;1.40;;;;;;;7.19;100.00;91768.22;5026138;28;20526;-74
2022/09/26 04:29:26;;;;;;;1.98;1.30;;;;;;;7.11;100.00;91766.25;4993655;28;20038;-75
2022/09/26 04:32:05;;;;;;;2.45;1.40;;;;;;;7.06;100.00;91771.53;5010331;28;20647;-75
2022/09/26 04:34:44;;;;;;;1.58;0.95;;;;;;;7.04;100.00;91776.25;5011164;28;20507;-74
2022/09/26 04:37:12;;;;;;;1.17;0.80;;;;;;;7.00;100.00;91765.63;5010069;28;20092;-75
2022/09/26 04:39:37;;;;;;;1.20;0.90;;;;;;;6.94;100.00;91779.75;5009830;28;20105;-75
2022/09/26 04:42:03;;;;;;;1.13;0.80;;;;;;;6.90;100.00;91778.00;5010953;28;20599;-74
2022/09/26 04:44:29;;;;;;;1.55;1.00;;;;;;;6.87;100.00;91772.31;5026609;28;20081;-75
2022/09/26 04:46:54;;;;;;;1.15;0.90;;;;;;;6.88;100.00;91773.84;5012812;28;20395;-75
2022/09/26 04:49:29;;;;;;;2.35;1.00;;;;;;;6.90;100.00;91767.59;5029325;28;20491;-75
2022/09/26 04:51:55;;;;;;;2.95;1.23;;;;;;;6.99;100.00;91778.91;5030994;28;20676;-75
2022/09/26 04:54:22;;;;;;;1.95;1.40;;;;;;;7.08;100.00;91774.63;5029229;28;20045;-75
2022/09/26 04:56:48;;;;;;;1.90;1.08;;;;;;;7.07;100.00;91763.44;5013129;28;20041;-75
2022/09/26 04:59:13;;;;;;;1.38;1.00;;;;;;;7.02;100.00;91767.94;5012711;28;20411;-75
2022/09/26 05:01:53;;;;;;;1.00;0.90;;;;;;;6.98;100.00;91766.94;5030544;28;20545;-75
2022/09/26 05:04:32;;;;;;;1.60;0.90;;;;;;;6.97;100.00;91760.97;5030779;28;20596;-75
2022/09/26 05:06:58;;;;;;;1.83;0.88;;;;;;;6.97;100.00;91755.78;5030305;28;20049;-74
2022/09/26 05:09:27;;;;;;;0.77;0.70;;;;;;;7.02;100.00;91760.13;5026333;28;20037;-75
2022/09/26 05:12:00;;;;;;;;;;;;;;;7.02;100.00;91755.69;5024679;28;20116;-75
2022/09/26 05:14:26;;;;;;;3.05;0.80;;;;;;;7.02;100.00;91757.53;5029303;28;19970;-75
2022/09/26 05:16:51;;;;;;;1.60;0.80;;;;;;;7.03;100.00;91757.25;5029262;28;20128;-74
2022/09/26 05:19:17;;;;;;;0.55;0.55;;;;;;;7.20;98.83;91759.34;5019830;28;20066;-74
2022/09/26 05:22:02;;;;;;;1.67;1.10;;;;;;;7.23;99.10;91752.81;5031684;28;20574;-74
2022/09/26 05:27:14;;;;;;;1.50;0.95;;;;;;;7.23;100.00;91763.25;5032487;28;20377;-75
2022/09/26 05:29:39;;;;;;;1.88;1.10;;;;;;;7.23;100.00;91769.22;5016207;28;20078;-74
2022/09/26 05:32:06;;;;;;;1.67;1.00;;;;;;;7.52;100.00;91765.69;5016145;28;20045;-74
2022/09/26 05:34:36;;;;;;;2.15;1.20;;;;;;;8.30;99.23;91766.69;5012600;28;20129;-75
2022/09/26 05:37:02;;;;;;;2.00;1.10;;;;;;;8.73;97.00;91763.81;5017841;28;20037;-75
2022/09/26 05:42:14;;;;;;;3.63;1.20;;;;;;;8.60;96.40;91751.56;5014753;28;20073;-74
2022/09/26 05:44:39;;;;;;;2.17;1.00;;;;;;;9.18;93.90;91750.84;5012664;28;20034;-74
2022/09/26 05:47:07;;;;;;;2.60;0.75;;;;;;;9.89;89.45;91742.44;5012482;28;20084;-75
2022/09/26 05:49:35;;;;;;;0.98;0.75;;;;;;;10.71;86.78;91760.50;5014297;28;20459;-75
2022/09/26 05:52:02;;;;;;;1.42;1.00;;;;;;;11.74;83.55;91758.28;5031754;28;20029;-74
2022/09/26 05:54:28;;;;;;;1.23;0.90;;;;;;;12.39;80.30;91762.47;5020586;28;20052;-75
2022/09/26 05:56:55;;;;;;;1.58;1.02;;;;;;;13.02;76.35;91757.41;5031859;28;20540;-75
2022/09/26 05:59:43;;;;;;;1.83;1.10;;;;;;;13.62;75.06;91762.59;5028972;28;20099;-74
2022/09/26 06:02:29;;;;;;;3.65;1.15;;;;;;;14.20;72.23;91750.28;5031644;28;20049;-74
2022/09/26 06:05:22;;;;;;;1.20;1.05;;;;;;;14.83;69.30;91757.19;5031746;28;20414;-75
2022/09/26 06:08:08;;;;;;;4.05;1.48;;;;;;;15.27;64.40;91766.06;5033312;28;20115;-76
2022/09/26 06:10:41;;;;;;;2.60;1.20;;;;;;;15.91;63.00;91761.84;4997198;28;20041;-75
2022/09/26 06:13:07;;;;;;;3.70;1.23;;;;;;;16.03;65.71;91767.09;5011722;28;20537;-75
2022/09/26 06:15:51;;;;;;;2.05;1.10;;;;;;;16.32;63.95;91761.78;5011484;28;20451;-75
2022/09/26 06:18:17;;;;;;;1.90;1.10;;;;;;;16.85;63.19;91768.41;5028284;28;20053;-75
2022/09/26 06:20:42;;;;;;;3.05;1.35;;;;;;;17.09;62.20;91757.97;5028040;28;20037;-75
2022/09/26 06:23:09;;;;;;;3.05;1.23;;;;;;;17.46;59.15;91764.47;5011814;28;20034;-76
2022/09/26 06:25:37;;;;;;;12.88;3.38;;;;;;;17.74;59.13;91757.47;5036422;28;20057;-76
2022/09/26 06:28:02;;;;;;;3.08;1.30;;;;;;;18.12;58.36;91761.25;5015082;28;20076;-75
2022/09/26 06:30:29;;;;;;;1.88;0.95;;;;;;;18.80;54.31;91760.59;5030096;28;20033;-76
2022/09/26 06:33:15;;;;;;;1.50;1.00;;;;;;;19.05;53.78;91757.53;5011441;28;20545;-75
2022/09/26 06:36:00;;;;;;;5.15;1.45;;;;;;;19.53;53.47;91755.97;5031071;28;20045;-76
2022/09/26 06:38:31;;;;;;;2.03;1.23;;;;;;;19.50;51.97;91761.25;5031029;28;20067;-76
2022/09/26 06:40:57;;;;;;;2.50;1.20;;;;;;;20.05;53.17;91764.22;5031082;28;20122;-77
2022/09/26 06:43:23;;;;;;;1.90;1.30;;;;;;;21.06;50.80;91755.34;5032582;28;20057;-77
2022/09/26 06:46:10;;;;;;;1.83;1.23;;;;;;;20.76;48.59;91756.25;5031783;28;20136;-77
2022/09/26 06:48:56;;;;;;;2.40;1.52;;;;;;;20.20;49.04;91762.50;5021838;28;20041;-79
2022/09/26 06:51:41;;;;;;;3.72;1.60;;;;;;;20.01;53.00;91768.72;5034818;28;20056;-78
2022/09/26 06:54:07;;;;;;;5.07;1.60;;;;;;;20.88;50.92;91765.84;5032516;28;20432;-78
2022/09/26 06:56:33;;;;;;;6.05;1.77;;;;;;;20.97;49.30;91765.56;5033858;28;20038;-76
2022/09/26 06:58:58;;;;;;;5.00;1.60;;;;;;;20.09;50.04;91765.03;5030856;28;20033;-77
2022/09/26 07:01:31;;;;;;;4.25;1.95;;;;;;;20.79;50.01;91762.72;5048222;28;20099;-78
2022/09/26 07:04:17;;;;;;;3.33;1.40;;;;;;;21.55;49.30;91772.06;5034314;28;20103;-78
2022/09/26 07:06:50;;;;;;;4.28;1.52;;;;;;;22.00;47.33;91778.78;5035491;28;20045;-78
2022/09/26 07:09:15;;;;;;;3.38;1.63;;;;;;;22.42;45.94;91774.00;5033412;28;20563;-78
2022/09/26 07:11:58;;;;;;;3.00;1.63;;;;;;;21.11;47.62;91762.22;5034064;28;20049;-80
2022/09/26 07:14:24;;;;;;;3.35;1.80;;;;;;;20.32;50.67;91767.56;5034618;28;20561;-78
2022/09/26 07:16:54;;;;;;;3.38;1.80;;;;;;;19.04;53.88;91772.69;5017147;28;20060;-78
2022/09/26 07:19:43;;;;;;;5.80;1.88;;;;;;;18.31;56.27;91769.19;5020941;28;20041;-78
2022/09/26 07:22:27;;;;;;;3.78;1.88;;;;;;;17.43;61.10;91775.75;5033363;28;20045;-78
2022/09/26 07:24:54;;;;;;;3.20;1.60;;;;;;;16.91;61.24;91781.34;5032967;28;20068;-77
2022/09/26 07:27:20;;;;;;;4.57;1.67;;;;;;;16.77;64.45;91777.22;5032602;28;20048;-78
2022/09/26 07:29:46;;;;;;;4.70;1.50;;;;;;;17.35;63.61;91773.28;5032790;28;20041;-78
2022/09/26 07:32:12;;;;;;;12.10;1.90;;;;;;;16.87;63.35;91775.25;5016294;28;20033;-78
2022/09/26 07:34:53;;;;;;;3.03;1.67;;;;;;;16.70;63.61;91785.00;5019883;28;20503;-77
2022/09/26 07:37:19;;;;;;;3.00;1.67;;;;;;;16.71;64.68;91778.63;5013792;28;20091;-75
2022/09/26 07:39:46;;;;;;;5.55;2.00;;;;;;;16.32;65.93;91777.63;5030310;28;20048;-75
2022/09/26 07:42:13;;;;;;;3.83;1.90;;;;;;;15.96;67.01;91781.97;5013371;28;20109;-77
2022/09/26 07:44:39;;;;;;;4.32;2.15;;;;;;;16.15;66.76;91770.78;5027586;28;20146;-76
2022/09/26 07:52:54;;;;;;;4.43;1.80;;;;;;;16.08;65.53;91775.88;5023780;28;20045;-76
2022/09/26 07:55:25;;;;;;;7.18;1.92;;;;;;;16.43;65.49;91784.69;5029731;28;20427;-75
2022/09/26 07:58:09;;;;;;;3.83;1.90;;;;;;;16.61;64.86;91777.22;5010352;28;20128;-76
2022/09/26 08:00:45;;;;;;;4.50;2.08;;;;;;;16.06;68.26;91783.38;5026173;28;20511;-76
2022/09/26 08:03:29;;;;;;;5.35;1.92;;;;;;;15.71;70.58;91789.19;5011333;28;20105;-75
2022/09/26 08:05:59;;;;;;;3.65;2.20;;;;;;;15.66;71.75;91787.53;5026194;28;20458;-76
2022/09/26 08:08:25;;;;;;;5.18;1.90;;;;;;;15.16;69.55;91792.13;5009614;28;20095;-76
2022/09/26 08:10:57;;;;;;;4.28;1.83;;;;;;;15.23;70.41;91796.06;5025472;28;20037;-76
2022/09/26 08:13:42;;;;;;;3.63;1.80;;;;;;;15.27;70.96;91799.59;5011240;28;20076;-76
2022/09/26 08:16:38;;;;;;;3.83;1.60;;;;;;;15.75;67.84;91790.06;5012229;28;20128;-76
2022/09/26 08:19:06;;;;;;;5.13;1.80;;;;;;;15.56;67.91;91793.28;5031139;28;20383;-76
2022/09/26 08:21:31;;;;;;;4.93;1.85;;;;;;;15.27;69.09;91794.31;5029706;28;20136;-75
2022/09/26 08:23:58;;;;;;;5.88;1.80;;;;;;;15.73;71.05;91797.53;5029795;28;20037;-79
2022/09/26 08:26:55;;;;;;;4.72;2.00;;;;;;;15.66;69.95;91794.69;5007622;28;20448;-76
2022/09/26 08:29:25;;;;;;;4.25;1.60;;;;;;;15.54;71.38;91790.97;5029682;28;20044;-76
2022/09/26 08:31:53;;;;;;;2.60;1.50;;;;;;;15.64;69.76;91795.00;5029287;28;20061;-76
2022/09/26 08:34:20;;;;;;;5.53;2.15;;;;;;;15.64;66.64;91788.97;5029877;28;20041;-76
2022/09/26 08:36:54;;;;;;;2.67;1.40;;;;;;;15.62;64.95;91784.78;5029271;28;20045;-76
2022/09/26 08:39:47;;;;;;;9.30;1.83;;;;;;;15.59;67.13;91785.44;5028727;28;20054;-77
2022/09/26 08:43:08;;;;;;;4.70;1.88;;;;;;;15.20;70.45;91784.31;5030661;28;20135;-76
2022/09/26 08:46:37;;;;;;;3.95;1.70;;;;;;;15.27;70.38;91781.91;5007533;28;20132;-76
2022/09/26 08:49:38;;;;;;;4.25;1.80;;;;;;;15.34;73.67;91778.69;5029472;28;20104;-77
2022/09/26 08:52:26;;;;;;;3.10;1.67;;;;;;;15.11;73.42;91781.78;5029313;28;20494;-76
2022/09/26 08:54:55;;;;;;;6.20;2.25;;;;;;;15.31;73.30;91777.50;5016714;28;20055;-76
2022/09/26 08:57:37;;;;;;;4.00;1.80;;;;;;;15.59;72.23;91777.53;5033367;28;20095;-76
2022/09/26 09:00:13;;;;;;;4.75;1.70;;;;;;;15.61;73.53;91777.97;5033312;28;20697;-76
2022/09/26 09:02:55;;;;;;;4.88;1.70;;;;;;;15.37;75.04;91764.84;5033764;28;20055;-78
2022/09/26 09:05:26;;;;;;;3.25;1.73;;;;;;;15.20;74.08;91769.25;5033267;28;20084;-76
2022/09/26 09:07:56;;;;;;;2.77;1.90;;;;;;;15.66;74.24;91770.94;5033105;28;20042;-76
2022/09/26 09:11:05;;;;;;;3.47;2.00;;;;;;;15.22;73.49;91765.50;5016849;28;20296;-76
2022/09/26 09:13:40;;;;;;;5.70;1.80;;;;;;;15.00;75.92;91764.88;4998941;28;20046;-76
2022/09/26 09:16:59;;;;;;;5.60;1.77;;;;;;;14.70;74.70;91762.47;4996680;28;20082;-76
2022/09/26 09:19:57;;;;;;;2.90;1.60;;;;;;;14.75;74.26;91764.88;5034381;28;20266;-77
2022/09/26 09:22:52;;;;;;;4.50;1.90;;;;;;;15.30;72.84;91762.00;5032988;28;20393;-76
2022/09/26 09:25:27;;;;;;;2.83;1.70;;;;;;;15.34;72.10;91758.38;5034280;28;20071;-77
2022/09/26 09:28:06;;;;;;;4.50;1.70;;;;;;;15.78;71.46;91755.09;5033134;28;20091;-77
2022/09/26 09:30:38;;;;;;;4.03;1.50;;;;;;;15.79;68.32;91752.13;5032893;28;20045;-76
2022/09/26 09:33:32;;;;;;;3.20;1.63;;;;;;;15.40;73.53;91745.72;5034485;28;20077;-77
2022/09/26 09:36:24;;;;;;;5.03;1.85;;;;;;;15.13;72.82;91747.97;5034240;28;20083;-77
2022/09/26 09:39:32;;;;;;;4.40;1.90;;;;;;;15.65;71.82;91732.44;5026317;28;20111;-77
2022/09/26 09:42:30;;;;;;;4.63;1.67;;;;;;;15.95;70.31;91740.84;5031381;28;20128;-77
2022/09/26 09:45:05;;;;;;;3.33;1.63;;;;;;;16.28;66.98;91737.94;5032627;28;20091;-77
2022/09/26 09:47:37;;;;;;;3.55;1.50;;;;;;;16.33;66.70;91726.34;5016468;28;20402;-77
2022/09/26 09:50:47;;;;;;;3.38;1.60;;;;;;;16.49;65.04;91726.38;5032599;28;20510;-77
2022/09/26 09:53:35;;;;;;;3.25;1.60;;;;;;;16.24;68.32;91726.50;4975556;28;20030;-77
2022/09/26 09:56:25;;;;;;;3.30;1.75;;;;;;;16.55;68.33;91724.97;5032363;28;20088;-77
2022/09/26 09:59:06;;;;;;;6.28;1.70;;;;;;;16.80;65.72;91718.44;5033688;28;20113;-76
2022/09/26 10:01:59;;;;;;;2.85;1.40;;;;;;;16.96;65.14;91718.44;5032282;28;20414;-77
2022/09/26 10:04:35;;;;;;;6.32;1.80;;;;;;;17.13;68.47;91714.63;5031457;28;20038;-77
2022/09/26 10:07:04;;;;;;;3.90;1.60;;;;;;;16.61;67.84;91711.16;5032569;28;20048;-77
2022/09/26 10:09:38;;;;;;;3.17;1.90;;;;;;;16.54;66.21;91710.25;5016296;28;20132;-76
2022/09/26 10:12:29;;;;;;;4.18;1.45;;;;;;;16.10;65.00;91712.94;5034703;28;20040;-76
2022/09/26 10:15:19;;;;;;;6.05;1.75;;;;;;;16.04;66.18;91707.16;5033818;28;20048;-77
2022/09/26 10:18:05;;;;;;;5.65;1.60;;;;;;;16.19;66.15;91710.94;5034214;28;20450;-77
2022/09/26 10:20:52;;;;;;;3.38;1.75;;;;;;;15.99;68.67;91715.31;5032839;28;20110;-74
2022/09/26 10:23:41;;;;;;;5.05;1.52;;;;;;;15.69;68.49;91714.84;5033117;28;20381;-75
2022/09/26 10:26:13;;;;;;;4.38;2.15;;;;;;;15.74;69.81;91722.56;5031804;28;20034;-75
2022/09/26 10:28:46;;;;;;;3.55;1.73;;;;;;;15.64;68.81;91715.88;5031848;28;20101;-76
2022/09/26 10:31:23;;;;;;;5.15;2.03;;;;;;;15.90;68.43;91710.19;5031775;28;20510;-76
2022/09/26 10:34:27;;;;;;;8.05;2.03;;;;;;;15.86;67.92;91714.59;5031815;28;20030;-76
2022/09/26 10:36:54;;;;;;;3.22;1.55;;;;;;;16.39;66.85;91706.50;5032958;28;20037;-76
2022/09/26 10:42:21;;;;;;;4.45;1.80;;;;;;;16.72;64.37;91711.44;5031471;28;20133;-77
2022/09/26 10:44:49;;;;;;;4.75;1.60;;;;;;;16.68;65.68;91700.00;5015648;28;20465;-76
2022/09/26 10:47:36;;;;;;;2.60;1.40;;;;;;;16.61;63.12;91705.13;5011365;28;20532;-76
2022/09/26 10:50:27;;;;;;;2.95;1.60;;;;;;;16.75;64.31;91696.75;5011196;28;20130;-76
2022/09/26 10:53:14;;;;;;;2.05;1.02;;;;;;;16.56;59.35;91700.09;5033115;28;20038;-77
2022/09/26 10:55:45;;;;;;;2.45;1.30;;;;;;;16.57;59.15;91705.06;5015083;28;20061;-76
2022/09/26 10:58:20;;;;;;;2.85;1.50;;;;;;;16.68;57.85;91693.97;5031289;28;20033;-76
2022/09/26 11:00:50;;;;;;;2.17;1.17;;;;;;;16.66;60.30;91694.28;5031516;28;20555;-76
2022/09/26 11:03:38;;;;;;;1.33;1.10;;;;;;;16.61;60.25;91689.28;5032618;28;20387;-76
2022/09/26 11:06:39;;;;;;;4.07;1.30;;;;;;;16.68;62.39;91689.44;5032773;28;20041;-76
2022/09/26 11:09:21;;;;;;;3.28;1.38;;;;;;;16.33;62.04;91687.50;5031215;28;20029;-76
2022/09/26 11:11:55;;;;;;;1.95;1.20;;;;;;;16.64;63.56;91685.97;5032717;28;20053;-76
2022/09/26 11:14:31;;;;;;;3.40;1.20;;;;;;;16.91;62.26;91683.56;5031081;28;20034;-76
2022/09/26 11:17:07;;;;;;;2.15;1.20;;;;;;;16.49;63.81;91681.44;5030892;28;20052;-76
2022/09/26 11:19:56;;;;;;;6.65;1.30;;;;;;;16.56;63.00;91682.38;5031184;28;20029;-76
2022/09/26 11:22:39;;;;;;;2.28;1.20;;;;;;;16.67;65.02;91672.06;5030554;28;20492;-76
2022/09/26 11:25:08;;;;;;;3.08;1.23;;;;;;;16.91;63.31;91667.69;5031791;28;20129;-76
2022/09/26 11:27:47;;;;;;;1.77;1.10;;;;;;;16.81;61.28;91671.63;5031312;28;20029;-76
2022/09/26 11:30:21;;;;;;;2.95;1.10;;;;;;;16.97;60.52;91663.69;5028942;28;20068;-75
2022/09/26 11:32:56;;;;;;;2.17;1.20;;;;;;;17.03;59.03;91662.31;5046377;28;20036;-76
2022/09/26 11:35:50;;;;;;;2.17;1.20;;;;;;;17.24;56.67;91656.69;5031728;28;20068;-77
2022/09/26 11:38:23;;;;;;;2.60;1.30;;;;;;;17.24;57.21;91654.03;5021122;28;20107;-76
2022/09/26 11:41:35;;;;;;;1.95;1.13;;;;;;;16.73;58.40;91654.06;5012101;28;20091;-76
2022/09/26 11:44:24;;;;;;;;;;;;;;;16.30;58.62;91653.84;5030727;28;20034;-76
2022/09/26 11:47:30;;;;;;;3.53;1.20;;;;;;;16.17;60.78;91644.50;5031819;28;19927;-76
2022/09/26 11:50:02;;;;;;;1.85;1.00;;;;;;;15.91;59.37;91640.44;5014567;28;20040;-76
2022/09/26 11:52:59;;;;;;;2.40;1.30;;;;;;;15.72;58.69;91635.84;5031212;28;20447;-75
2022/09/26 11:55:38;;;;;;;1.60;1.02;;;;;;;15.57;59.90;91636.53;5031655;28;20061;-76
2022/09/26 11:58:58;;;;;;;1.42;0.90;;;;;;;15.59;56.46;91629.06;5030343;28;20491;-75
2022/09/26 12:01:42;;;;;;;1.40;1.00;;;;;;;15.56;57.86;91637.66;5000309;28;20099;-76
2022/09/26 12:04:33;;;;;;;3.40;1.02;;;;;;;15.67;56.51;91630.00;5031599;28;20141;-76
2022/09/26 12:07:34;;;;;;;1.85;1.00;;;;;;;16.13;57.60;91625.16;5031571;28;20044;-76
2022/09/26 12:10:11;;;;;;;2.55;1.10;;;;;;;16.77;55.81;91617.91;5008564;28;20530;-76
2022/09/26 12:12:51;;;;;;;2.13;0.90;;;;;;;16.76;48.99;91622.44;5031613;28;20383;-75
2022/09/26 12:15:36;;;;;;;1.73;0.90;;;;;;;16.84;52.57;91618.88;5030355;28;20044;-76
2022/09/26 12:18:38;;;;;;;1.10;0.85;;;;;;;17.22;53.01;91612.06;5031832;28;20030;-75
2022/09/26 12:21:27;;;;;;;1.10;0.88;;;;;;;17.58;52.23;91615.38;5031436;28;20052;-75
2022/09/26 12:23:57;;;;;;;2.00;0.95;;;;;;;18.08;49.94;91600.41;5023731;28;20042;-75
2022/09/26 12:26:38;;;;;;;2.00;1.15;;;;;;;18.53;49.82;91600.75;5029922;28;20041;-76
2022/09/26 12:29:19;;;;;;;1.90;1.05;;;;;;;18.62;49.02;91597.81;5030704;28;20499;-76
2022/09/26 12:32:15;;;;;;;1.63;0.90;;;;;;;18.44;49.39;91602.84;5030949;28;20037;-76
2022/09/26 12:34:56;;;;;;;1.02;0.90;;;;;;;17.53;51.32;91604.34;5030673;28;20033;-75